• Join FlightAware (Why Join?)
  • Login
  • US Flag 
01:52PM EDT


 

Airport Tracker/Info


-or-


 

Live Flight TrackerFlight Track Log ✈ AVI900C ✈ 26-Sep-2009 ✈ KDAL - BIKF / KEF

Flight Track Log - Related Links

Times and Time Zones

All times are in EDT time to prevent confusion due to time zone crossing. See the AVI900C flight status page for this flight to view local times or setup timezone preferences in your user account.

Time Position Orientation Groundspeed Altitude Reporting Facility
EDT Latitude Longitude Course Direction KTS MPH feet Rate Location/Type
12:20AM 32.8000 -96.7833 134° Southeast 187 215 3,200  Level Dallas / Fort Worth TRACON
12:22AM 32.7522 -96.7242 131° Southeast 217 250 4,900 780 Climbing Fort Worth Center
12:23AM 32.7058 -96.6603 68° East 255 293 5,000 1,260 Climbing Fort Worth Center
12:24AM 32.7367 -96.5689 39° Northeast 245 282 7,500 2,640 Climbing Fort Worth Center
12:25AM 32.8008 -96.5064 40° Northeast 256 295 10,300 1,920 Climbing Fort Worth Center
12:26AM 32.8672 -96.4389 40° Northeast 297 342 11,400 1,440 Climbing Fort Worth Center
12:27AM 32.9439 -96.3614 47° Northeast 350 403 13,200 1,800 Climbing Fort Worth Center
12:28AM 33.0139 -96.2714 51° Northeast 365 420 15,000 1,860 Climbing Fort Worth Center
12:29AM 33.0839 -96.1664 51° Northeast 388 447 17,000 1,800 Climbing Fort Worth Center
12:30AM 33.1558 -96.0611 60° Northeast 403 464 18,600 1,560 Climbing Fort Worth Center
12:31AM 33.2172 -95.9361 68° East 416 479 20,200 1,500 Climbing Fort Worth Center
12:32AM 33.2636 -95.7986 69° East 436 502 21,700 1,560 Climbing Fort Worth Center
12:32AM 33.2849 -95.7289 68° East 22,400 1,620 Climbing FlightAware ADS-B
12:33AM 33.3092 -95.6570 63° Northeast 469 540 23,200 1,500 Climbing FlightAware ADS-B
12:33AM 33.3117 -95.6511 66° East 465 535 23,300 1,380 Climbing Fort Worth Center
12:33AM 33.3392 -95.5756 59° Northeast 468 539 24,000 1,200 Climbing FlightAware ADS-B
12:34AM 33.3700 -95.5131 55° Northeast 471 542 24,500 1,260 Climbing Fort Worth Center
12:34AM 33.3767 -95.5015 53° Northeast 482 555 24,700 1,200 Climbing FlightAware ADS-B
12:35AM 33.4494 -95.3869 51° Northeast 466 536 25,700 1,020 Climbing Fort Worth Center
12:36AM 33.5372 -95.2578 51° Northeast 477 549 26,800 1,080 Climbing Fort Worth Center
12:37AM 33.6267 -95.1258 52° Northeast 495 570 27,900 1,080 Climbing Fort Worth Center
12:38AM 33.7139 -94.9914 52° Northeast 500 575 29,000 1,080 Climbing Fort Worth Center
12:39AM 33.8050 -94.8514 52° Northeast 512 589 30,100 1,200 Climbing Fort Worth Center
12:40AM 33.8939 -94.7136 51° Northeast 517 595 31,500 1,200 Climbing Fort Worth Center
12:41AM 33.9828 -94.5806 52° Northeast 517 595 32,600 1,020 Climbing Fort Worth Center
12:42AM 34.0881 -94.4150 52° Northeast 534 615 34,000 900 Climbing Memphis Center
12:43AM 34.1781 -94.2764 53° Northeast 521 600 34,800 480 Climbing Memphis Center
12:44AM 34.2658 -94.1344 51° Northeast 521 600 35,000 60 Climbing Memphis Center
12:45AM 34.3556 -94.0000 54° Northeast 521 600 35,000  Level Memphis Center
12:46AM 34.4386 -93.8625 52° Northeast 521 600 35,000  Level Memphis Center
12:47AM 34.5258 -93.7275 52° Northeast 511 588 35,000  Level Memphis Center
12:48AM 34.6108 -93.5947 52° Northeast 506 582 35,000  Level Memphis Center
12:49AM 34.6933 -93.4639 53° Northeast 495 570 35,000  Level Memphis Center
12:50AM 34.7781 -93.3253 52° Northeast 500 575 35,000  Level Memphis Center
12:51AM 34.8606 -93.1942 52° Northeast 500 575 35,000  Level Memphis Center
12:52AM 34.9469 -93.0603 53° Northeast 500 575 35,000  Level Memphis Center
12:53AM 35.0289 -92.9261 54° Northeast 500 575 35,000  Level Memphis Center
12:54AM 35.1111 -92.7889 53° Northeast 500 575 35,000  Level Memphis Center
12:55AM 35.1950 -92.6542 53° Northeast 495 570 35,000  Level Memphis Center
12:56AM 35.2808 -92.5164 52° Northeast 500 575 35,000  Level Memphis Center
12:57AM 35.3750 -92.3661 53° Northeast 500 575 35,000  Level Memphis Center
12:58AM 35.4586 -92.2281 53° Northeast 500 575 35,000  Level Memphis Center
12:59AM 35.5419 -92.0919 54° Northeast 500 575 35,000  Level Memphis Center
01:00AM 35.6231 -91.9558 53° Northeast 500 575 35,000  Level Memphis Center
01:01AM 35.7058 -91.8194 54° Northeast 495 570 35,000  Level Memphis Center
01:02AM 35.7867 -91.6825 53° Northeast 500 575 35,000  Level Memphis Center
01:03AM 35.8714 -91.5456 54° Northeast 500 575 35,000  Level Memphis Center
01:04AM 35.9350 -91.4364 54° Northeast 500 575 35,000  Level Memphis Center
01:05AM 36.0217 -91.2886 53° Northeast 494 568 35,000  Level Memphis Center
01:06AM 36.1039 -91.1533 56° Northeast 494 568 35,000  Level Memphis Center
01:07AM 36.1797 -91.0153 53° Northeast 494 568 35,000  Level Memphis Center
01:08AM 36.2597 -90.8819 53° Northeast 494 568 35,000  Level Memphis Center
01:09AM 36.3414 -90.7461 54° Northeast 494 568 35,000  Level Memphis Center
01:10AM 36.4211 -90.6097 53° Northeast 494 568 35,000  Level Memphis Center
01:11AM 36.5025 -90.4731 55° Northeast 494 568 35,000  Level Memphis Center
01:12AM 36.5881 -90.3233 54° Northeast 494 568 35,000  Level Memphis Center
01:13AM 36.6692 -90.1861 55° Northeast 494 568 35,000  Level Memphis Center
01:14AM 36.7461 -90.0489 54° Northeast 494 568 35,000  Level Memphis Center
01:15AM 36.8269 -89.9086 54° Northeast 494 568 35,000  Level Memphis Center
01:16AM 36.9075 -89.7681 54° Northeast 499 574 35,000  Level Memphis Center
01:17AM 36.9881 -89.6272 55° Northeast 499 574 35,000  Level Memphis Center
01:18AM 37.0683 -89.4858 54° Northeast 499 574 35,000  Level Memphis Center
01:19AM 37.1528 -89.3394 55° Northeast 499 574 35,000  Level Memphis Center
01:20AM 37.2328 -89.1975 56° Northeast 499 574 35,000  Level Memphis Center
01:21AM 37.3125 -89.0503 54° Northeast 499 574 35,000  Level Memphis Center
01:22AM 37.3942 -88.9081 55° Northeast 504 580 35,000  Level Memphis Center
01:23AM 37.4758 -88.7603 55° Northeast 504 580 35,000  Level Memphis Center
01:24AM 37.5569 -88.6122 56° Northeast 499 574 35,000  Level Memphis Center
01:25AM 37.6361 -88.4636 55° Northeast 499 574 35,000  Level Memphis Center
01:26AM 37.7192 -88.3122 54° Northeast 504 580 35,000  Level Memphis Center
01:27AM 37.7858 -88.1978 57° Northeast 509 586 35,000  Level Memphis Center
01:28AM 37.8950 -87.9814 56° Northeast 515 593 35,000  Level Indianapolis Center
01:29AM 37.9758 -87.8281 56° Northeast 515 593 35,000  Level Indianapolis Center
01:30AM 38.0583 -87.6747 56° Northeast 520 598 35,000  Level Indianapolis Center
01:31AM 38.1297 -87.5414 56° Northeast 515 593 35,000  Level Indianapolis Center
01:32AM 38.2100 -87.3869 55° Northeast 520 598 35,000  Level Indianapolis Center
01:33AM 38.2897 -87.2406 58° Northeast 514 592 35,000  Level Indianapolis Center
01:34AM 38.3789 -87.0594 55° Northeast 530 610 35,000  Level Indianapolis Center
01:35AM 38.4647 -86.9017 56° Northeast 542 624 35,000  Level Indianapolis Center
01:36AM 38.5442 -86.7486 57° Northeast 534 615 35,000  Level Indianapolis Center
01:37AM 38.6233 -86.5928 56° Northeast 528 608 35,000  Level Indianapolis Center
01:38AM 38.7044 -86.4364 57° Northeast 523 602 35,000  Level Indianapolis Center
01:39AM 38.7831 -86.2822 57° Northeast 517 595 35,000  Level Indianapolis Center
01:40AM 38.8617 -86.1281 58° Northeast 517 595 35,000  Level Indianapolis Center
01:41AM 38.9358 -85.9731 56° Northeast 517 595 35,000  Level Indianapolis Center
01:42AM 39.0075 -85.8339 57° Northeast 517 595 35,000  Level Indianapolis Center
01:43AM 39.0875 -85.6758 57° Northeast 517 595 35,000  Level Indianapolis Center
01:44AM 39.1697 -85.5122 58° Northeast 529 609 35,000  Level Indianapolis Center
01:45AM 39.2492 -85.3508 57° Northeast 534 615 35,000  Level Indianapolis Center
01:46AM 39.3308 -85.1864 58° Northeast 534 615 35,000  Level Indianapolis Center
01:47AM 39.4103 -85.0189 57° Northeast 539 620 35,000  Level Indianapolis Center
01:48AM 39.5000 -84.8406 57° Northeast 534 615 35,000  Level Indianapolis Center
01:49AM 39.5808 -84.6803 58° Northeast 534 615 35,000  Level Indianapolis Center
01:50AM 39.6594 -84.5144 57° Northeast 534 615 35,000  Level Indianapolis Center
01:51AM 39.7397 -84.3508 58° Northeast 534 615 35,000  Level Indianapolis Center
01:52AM 39.8178 -84.1867 58° Northeast 540 621 35,000  Level Indianapolis Center
01:53AM 39.8875 -84.0386 58° Northeast 534 615 35,000  Level Indianapolis Center
01:54AM 39.9672 -83.8739 59° Northeast 529 609 35,000  Level Indianapolis Center
01:55AM 40.0447 -83.7061 59° Northeast 535 616 35,000  Level Indianapolis Center
01:56AM 40.1281 -83.5272 59° Northeast 529 609 35,000  Level Indianapolis Center
01:57AM 40.2050 -83.3586 59° Northeast 529 609 35,000  Level Indianapolis Center
01:58AM 40.2797 -83.1953 59° Northeast 534 615 35,000  Level Indianapolis Center
01:59AM 40.3542 -83.0314 59° Northeast 534 615 35,000  Level Indianapolis Center
02:00AM 40.4325 -82.8617 58° Northeast 534 615 35,000  Level Indianapolis Center
02:01AM 40.5086 -82.6997 59° Northeast 534 615 35,000  Level Indianapolis Center
02:02AM 40.5883 -82.5267 60° Northeast 534 615 35,000  Level Indianapolis Center
02:03AM 40.6639 -82.3558 59° Northeast 534 615 35,000  Level Indianapolis Center
02:04AM 40.7411 -82.1847 60° Northeast 541 623 35,000  Level Indianapolis Center
02:05AM 40.8161 -82.0106 59° Northeast 546 628 35,000  Level Indianapolis Center
02:06AM 40.8950 -81.8331 60° Northeast 546 628 35,000  Level Indianapolis Center
02:07AM 40.9736 -81.6550 60° Northeast 551 634 35,000  Level Indianapolis Center
02:08AM 41.0497 -81.4797 60° Northeast 556 640 35,000  Level Indianapolis Center
02:09AM 41.1258 -81.3064 60° Northeast 556 640 35,000  Level Indianapolis Center
02:10AM 41.1994 -81.1358 60° Northeast 544 626 35,000  Level Indianapolis Center
02:11AM 41.2731 -80.9647 60° Northeast 537 618 35,000  Level Indianapolis Center
02:12AM 41.3442 -80.7992 61° Northeast 521 600 35,000  Level Indianapolis Center
02:13AM 41.4133 -80.6358 61° Northeast 513 590 35,000  Level Indianapolis Center
02:14AM 41.4819 -80.4722 59° Northeast 513 590 35,000  Level Indianapolis Center
02:15AM 41.5567 -80.3025 60° Northeast 513 590 35,000  Level Indianapolis Center
02:16AM 41.6289 -80.1322 60° Northeast 513 590 35,000  Level Indianapolis Center
02:17AM 41.6875 -79.9961 360° North 513 590 35,000  Level Indianapolis Center
02:18AM 41.6875 -79.9961 360° North 513 590 35,000  Level Indianapolis Center
02:19AM 41.6875 -79.9961 360° North 513 590 35,000  Level Indianapolis Center
02:20AM 41.6875 -79.9961 360° North 513 590 35,000  Level Indianapolis Center
02:21AM 41.6875 -79.9961 360° North 513 590 35,000  Level Indianapolis Center
02:22AM 41.6875 -79.9961 360° North 513 590 35,000  Level Indianapolis Center
02:23AM 41.6875 -79.9961 360° North 513 590 35,000  Level Indianapolis Center
02:24AM 41.6875 -79.9961 360° North 513 590 35,000  Level Indianapolis Center
02:25AM 41.6875 -79.9961 360° North 513 590 35,000  Level Indianapolis Center
02:26AM 41.6875 -79.9961 360° North 513 590 35,000  Level Indianapolis Center
02:27AM 41.6875 -79.9961 360° North 513 590 35,000  Level Indianapolis Center
02:28AM 41.6875 -79.9961 360° North 513 590 35,000  Level Indianapolis Center
02:29AM 41.6875 -79.9961 360° North 513 590 35,000  Level Indianapolis Center
02:30AM 41.6875 -79.9961 360° North 513 590 35,000  Level Indianapolis Center
02:31AM 41.6875 -79.9961 360° North 513 590 35,000  Level Indianapolis Center
02:32AM 41.6875 -79.9961 360° North 513 590 35,000  Level Indianapolis Center
02:33AM 41.6875 -79.9961 360° North 513 590 35,000  Level Indianapolis Center
02:34AM 41.6875 -79.9961 360° North 513 590 35,000  Level Indianapolis Center
02:35AM 41.6875 -79.9961 360° North 513 590 35,000  Level Indianapolis Center
02:36AM 41.6875 -79.9961 360° North 513 590 35,000  Level Indianapolis Center
02:37AM 41.6875 -79.9961 360° North 513 590 35,000  Level Indianapolis Center
02:38AM 41.6875 -79.9961 360° North 513 590 35,000  Level Indianapolis Center
02:39AM 41.6875 -79.9961 360° North 513 590 35,000  Level Indianapolis Center
02:40AM 41.6875 -79.9961 360° North 513 590 35,000  Level Indianapolis Center
02:41AM 41.6875 -79.9961 360° North 513 590 35,000  Level Indianapolis Center
02:42AM 41.6875 -79.9961 360° North 513 590 35,000  Level Indianapolis Center
02:43AM 41.6875 -79.9961 360° North 513 590 35,000  Level Indianapolis Center
02:44AM 41.6875 -79.9961 360° North 513 590 35,000  Level Indianapolis Center
02:45AM 41.6875 -79.9961 360° North 513 590 35,000  Level Indianapolis Center
02:46AM 41.6875 -79.9961 360° North 513 590 35,000  Level Indianapolis Center
02:47AM 41.6875 -79.9961 57° Northeast 513 590 35,000 1,140 Level Indianapolis Center
02:48AM 44.1000 -74.6167 55° Northeast 540 621 37,000 1,140 Climbing Montreal Center
02:49AM 44.1833 -74.4500 55° Northeast 540 621 37,000  Level Montreal Center
02:50AM 44.2667 -74.2833 50° Northeast 540 621 37,000  Level Montreal Center
02:51AM 44.3667 -74.1167 43° Northeast 540 621 37,000  Level Montreal Center
02:52AM 44.4833 -73.9667 44° Northeast 540 621 37,000  Level Montreal Center
02:53AM 44.5833 -73.8333 47° Northeast 540 621 37,000  Level Montreal Center
02:54AM 44.6833 -73.6833 45° Northeast 540 621 37,000  Level Montreal Center
02:55AM 44.8000 -73.5167 52° Northeast 540 621 37,000  Level Montreal Center
02:56AM 44.8833 -73.3667 45° Northeast 550 633 37,000  Level Montreal Center
02:57AM 45.0000 -73.2000 47° Northeast 540 621 37,000  Level Montreal Center
02:58AM 45.1000 -73.0500 45° Northeast 550 633 37,000  Level Montreal Center
02:59AM 45.2167 -72.8833 46° Northeast 550 633 37,000  Level Montreal Center
03:00AM 45.3167 -72.7333 46° Northeast 550 633 37,000  Level Montreal Center
03:01AM 45.4167 -72.5833 52° Northeast 550 633 37,000  Level Montreal Center
03:02AM 45.5167 -72.4000 42° Northeast 550 633 37,000  Level Montreal Center
03:03AM 45.6333 -72.2500 54° Northeast 550 633 37,000  Level Montreal Center
03:04AM 45.7167 -72.0833 42° Northeast 550 633 37,000  Level Montreal Center
03:05AM 45.8333 -71.9333 47° Northeast 550 633 37,000  Level Montreal Center
03:06AM 45.9500 -71.7500 51° Northeast 550 633 37,000  Level Montreal Center
03:07AM 46.0333 -71.6000 49° Northeast 550 633 37,000  Level Montreal Center
03:08AM 46.1333 -71.4333 45° Northeast 550 633 37,000  Level Montreal Center
03:09AM 46.2500 -71.2667 54° Northeast 550 633 37,000  Level Montreal Center
03:10AM 46.3333 -71.1000 45° Northeast 550 633 37,000  Level Montreal Center
03:11AM 46.4500 -70.9333 54° Northeast 550 633 37,000  Level Montreal Center
03:12AM 46.5333 -70.7667 41° Northeast 550 633 37,000  Level Montreal Center
03:13AM 46.6500 -70.6167 51° Northeast 550 633 37,000  Level Montreal Center
03:14AM 46.7500 -70.4333 49° Northeast 550 633 37,000  Level Montreal Center
03:15AM 46.8500 -70.2667 46° Northeast 550 633 37,000  Level Montreal Center
03:16AM 46.9500 -70.1167 51° Northeast 550 633 37,000  Level Montreal Center
03:17AM 47.0500 -69.9333 49° Northeast 550 633 37,000  Level Montreal Center
03:18AM 47.1500 -69.7667 48° Northeast 550 633 37,000  Level Montreal Center
03:19AM 47.2500 -69.6000 51° Northeast 540 621 37,000  Level Montreal Center
03:20AM 47.3500 -69.4167 48° Northeast 540 621 37,000  Level Montreal Center
03:21AM 47.4500 -69.2500 56° Northeast 540 621 37,000  Level Montreal Center
03:22AM 47.5333 -69.0667 44° Northeast 540 621 37,000  Level Montreal Center
03:23AM 47.6500 -68.9000 50° Northeast 540 621 37,000  Level Montreal Center
03:24AM 47.7333 -68.7500 53° Northeast 540 621 37,000  Level Montreal Center
03:25AM 47.8333 -68.5500 48° Northeast 540 621 37,000  Level Montreal Center
03:26AM 47.9333 -68.3833 53° Northeast 540 621 37,000  Level Montreal Center
03:27AM 48.0167 -68.2167 51° Northeast 540 621 37,000  Level Montreal Center
03:28AM 48.1167 -68.0333 48° Northeast 540 621 37,000  Level Montreal Center
03:29AM 48.2167 -67.8667 48° Northeast 540 621 37,000  Level Montreal Center
03:30AM 48.3167 -67.7000 58° Northeast 540 621 37,000  Level Montreal Center
03:31AM 48.4000 -67.5000 43° Northeast 540 621 37,000  Level Montreal Center
03:32AM 48.5167 -67.3333 53° Northeast 540 621 37,000  Level Montreal Center
03:33AM 48.6000 -67.1667 53° Northeast 540 621 37,000  Level Montreal Center
03:34AM 48.7000 -66.9667 53° Northeast 540 621 37,000  Level Montreal Center
03:35AM 48.7833 -66.8000 50° Northeast 540 621 37,000  Level Montreal Center
03:36AM 48.8833 -66.6167 48° Northeast 540 621 37,000  Level Montreal Center
03:37AM 48.9833 -66.4500 55° Northeast 540 621 37,000  Level Montreal Center
03:38AM 49.0667 -66.2667 53° Northeast 540 621 37,000  Level Montreal Center
03:39AM 49.1667 -66.0667 53° Northeast 540 621 37,000  Level Montreal Center
03:40AM 49.2500 -65.9000 50° Northeast 540 621 37,000  Level Montreal Center
03:41AM 49.3500 -65.7167 52° Northeast 530 610 37,000  Level Montreal Center
03:42AM 49.4333 -65.5500 57° Northeast 530 610 37,000  Level Montreal Center
03:43AM 49.5167 -65.3500 55° Northeast 530 610 37,000  Level Montreal Center
03:44AM 49.6000 -65.1667 50° Northeast 530 610 37,000  Level Montreal Center
03:45AM 49.7000 -64.9833 47° Northeast 530 610 37,000  Level Montreal Center
03:46AM 49.8000 -64.8167 50° Northeast 530 610 37,000  Level Montreal Center
03:47AM 49.9000 -64.6333 55° Northeast 530 610 37,000  Level Montreal Center
03:48AM 49.9833 -64.4500 59° Northeast 530 610 37,000  Level Montreal Center
03:49AM 50.0667 -64.2333 52° Northeast 530 610 37,000  Level Montreal Center
03:50AM 50.1500 -64.0667 55° Northeast 530 610 37,000  Level Montreal Center
03:51AM 50.2333 -63.8833 54° Northeast 530 610 37,000  Level Montreal Center
03:52AM 50.3167 -63.7000 54° Northeast 520 598 37,000  Level Montreal Center
03:53AM 50.4000 -63.5167 49° Northeast 520 598 37,000  Level Montreal Center
03:54AM 50.5000 -63.3333 54° Northeast 510 587 37,000  Level Montreal Center
03:55AM 50.5833 -63.1500 54° Northeast 510 587 37,000  Level Montreal Center
03:56AM 50.6667 -62.9667 54° Northeast 520 598 37,000  Level Montreal Center
03:57AM 50.7500 -62.7833 57° Northeast 520 598 37,000  Level Montreal Center
03:58AM 50.8333 -62.5833 60° Northeast 520 598 37,000  Level Montreal Center
03:59AM 50.9000 -62.4000 49° Northeast 520 598 37,000  Level Montreal Center
04:00AM 50.9833 -62.2500 54° Northeast 510 587 37,000  Level Montreal Center
04:01AM 51.0833 -62.0333 57° Northeast 510 587 37,000  Level Montreal Center
04:02AM 51.1500 -61.8667 54° Northeast 510 587 37,000  Level Montreal Center
04:03AM 51.2333 -61.6833 56° Northeast 500 575 37,000  Level Montreal Center
04:04AM 51.3167 -61.4833 54° Northeast 500 575 37,000  Level Montreal Center
04:05AM 51.4000 -61.3000 60° Northeast 500 575 37,000  Level Montreal Center
04:06AM 51.4667 -61.1167 57° Northeast 500 575 37,000  Level Montreal Center
04:07AM 51.5333 -60.9500 51° Northeast 490 564 37,000  Level Montreal Center
04:08AM 51.6333 -60.7500 240° Southwest 490 564 37,000 -900 Level Montreal Center
04:09AM 41.6875 -79.9961 360° North 513 590 35,000 -900 Descending Indianapolis Center
04:10AM 41.6875 -79.9961 360° North 513 590 35,000  Level Indianapolis Center
04:11AM 41.6875 -79.9961 360° North 513 590 35,000  Level Indianapolis Center
04:12AM 41.6875 -79.9961 360° North 513 590 35,000  Level Indianapolis Center
04:13AM 41.6875 -79.9961 360° North 513 590 35,000  Level Indianapolis Center
04:14AM 41.6875 -79.9961 360° North 513 590 35,000  Level Indianapolis Center
04:15AM 41.6875 -79.9961 360° North 513 590 35,000  Level Indianapolis Center
04:16AM 41.6875 -79.9961 360° North 513 590 35,000  Level Indianapolis Center
04:17AM 41.6875 -79.9961 360° North 513 590 35,000  Level Indianapolis Center
04:18AM 41.6875 -79.9961 360° North 513 590 35,000  Level Indianapolis Center
04:19AM 41.6875 -79.9961 360° North 513 590 35,000  Level Indianapolis Center
04:20AM 41.6875 -79.9961 360° North 513 590 35,000  Level Indianapolis Center
04:21AM 41.6875 -79.9961 360° North 513 590 35,000  Level Indianapolis Center
04:22AM 41.6875 -79.9961 360° North 513 590 35,000  Level Indianapolis Center
04:23AM 41.6875 -79.9961 360° North 513 590 35,000  Level Indianapolis Center
04:24AM 41.6875 -79.9961 360° North 513 590 35,000  Level Indianapolis Center
04:25AM 41.6875 -79.9961 360° North 513 590 35,000  Level Indianapolis Center
04:26AM 41.6875 -79.9961 360° North 513 590 35,000  Level Indianapolis Center
04:27AM 41.6875 -79.9961 360° North 513 590 35,000  Level Indianapolis Center
04:28AM 41.6875 -79.9961 360° North 513 590 35,000  Level Indianapolis Center
04:29AM 41.6875 -79.9961 360° North 513 590 35,000  Level Indianapolis Center
04:30AM 41.6875 -79.9961 360° North 513 590 35,000  Level Indianapolis Center
04:31AM 41.6875 -79.9961 360° North 513 590 35,000  Level Indianapolis Center
04:32AM 41.6875 -79.9961 360° North 513 590 35,000  Level Indianapolis Center
04:33AM 41.6875 -79.9961 360° North 513 590 35,000  Level Indianapolis Center
04:34AM 41.6875 -79.9961 360° North 513 590 35,000  Level Indianapolis Center
04:35AM 41.6875 -79.9961 360° North 513 590 35,000  Level Indianapolis Center
04:36AM 41.6875 -79.9961 360° North 513 590 35,000  Level Indianapolis Center
04:37AM 41.6875 -79.9961 360° North 513 590 35,000  Level Indianapolis Center
04:38AM 41.6875 -79.9961 45° Northeast 513 590 35,000 1,500 Level Indianapolis Center
04:39AM 53.8667 -54.9667 244° Southwest 484 557 38,000  Climbing Transoceanic Report
04:39AM 41.6875 -79.9961 360° North 513 590 35,000 -3,000 Descending Indianapolis Center
04:40AM 41.6875 -79.9961 360° North 513 590 35,000  Level Indianapolis Center
04:41AM 41.6875 -79.9961 360° North 513 590 35,000  Level Indianapolis Center
04:42AM 41.6875 -79.9961 360° North 513 590 35,000  Level Indianapolis Center
04:43AM 41.6875 -79.9961 360° North 513 590 35,000  Level Indianapolis Center
04:44AM 41.6875 -79.9961 360° North 513 590 35,000  Level Indianapolis Center
04:45AM 41.6875 -79.9961 360° North 513 590 35,000  Level Indianapolis Center
04:46AM 41.6875 -79.9961 360° North 513 590 35,000  Level Indianapolis Center
04:47AM 41.6875 -79.9961 360° North 513 590 35,000  Level Indianapolis Center
04:48AM 41.6875 -79.9961 360° North 513 590 35,000  Level Indianapolis Center
04:49AM 41.6875 -79.9961 360° North 513 590 35,000  Level Indianapolis Center
04:50AM 41.6875 -79.9961 360° North 513 590 35,000  Level Indianapolis Center
04:51AM 41.6875 -79.9961 360° North 513 590 35,000  Level Indianapolis Center
04:52AM 41.6875 -79.9961 360° North 513 590 35,000  Level Indianapolis Center
04:53AM 41.6875 -79.9961 360° North 513 590 35,000  Level Indianapolis Center
04:54AM 41.6875 -79.9961 360° North 513 590 35,000  Level Indianapolis Center
04:55AM 41.6875 -79.9961 360° North 513 590 35,000  Level Indianapolis Center
04:56AM 41.6875 -79.9961 360° North 513 590 35,000  Level Indianapolis Center
04:57AM 41.6875 -79.9961 360° North 513 590 35,000  Level Indianapolis Center
04:58AM 41.6875 -79.9961 360° North 513 590 35,000  Level Indianapolis Center
04:59AM 41.6875 -79.9961 360° North 513 590 35,000  Level Indianapolis Center
05:00AM 41.6875 -79.9961 360° North 513 590 35,000  Level Indianapolis Center
05:01AM 41.6875 -79.9961 360° North 513 590 35,000  Level Indianapolis Center
05:02AM 41.6875 -79.9961 360° North 513 590 35,000  Level Indianapolis Center
05:03AM 41.6875 -79.9961 360° North 513 590 35,000  Level Indianapolis Center
05:04AM 41.6875 -79.9961 360° North 513 590 35,000  Level Indianapolis Center
05:05AM 41.6875 -79.9961 43° Northeast 513 590 35,000 1,200 Level Indianapolis Center
05:06AM 56.0000 -50.0000 246° West 503 579 37,000  Climbing Transoceanic Report
05:07AM 41.6875 -79.9961 360° North 513 590 35,000 -900 Descending Indianapolis Center
05:08AM 41.6875 -79.9961 360° North 513 590 35,000  Level Indianapolis Center
05:09AM 41.6875 -79.9961 360° North 513 590 35,000  Level Indianapolis Center
05:10AM 41.6875 -79.9961 360° North 513 590 35,000  Level Indianapolis Center
05:11AM 41.6875 -79.9961 360° North 513 590 35,000  Level Indianapolis Center
05:12AM 41.6875 -79.9961 360° North 513 590 35,000  Level Indianapolis Center
05:13AM 41.6875 -79.9961 360° North 513 590 35,000  Level Indianapolis Center
05:14AM 41.6875 -79.9961 360° North 513 590 35,000  Level Indianapolis Center
05:15AM 41.6875 -79.9961 360° North 513 590 35,000  Level Indianapolis Center
05:16AM 41.6875 -79.9961 360° North 513 590 35,000  Level Indianapolis Center
05:17AM 41.6875 -79.9961 360° North 513 590 35,000  Level Indianapolis Center
05:18AM 41.6875 -79.9961 360° North 513 590 35,000  Level Indianapolis Center
05:19AM 41.6875 -79.9961 360° North 513 590 35,000  Level Indianapolis Center
05:20AM 41.6875 -79.9961 360° North 513 590 35,000  Level Indianapolis Center
05:21AM 41.6875 -79.9961 360° North 513 590 35,000  Level Indianapolis Center
05:22AM 41.6875 -79.9961 360° North 513 590 35,000  Level Indianapolis Center
05:23AM 41.6875 -79.9961 360° North 513 590 35,000  Level Indianapolis Center
05:24AM 41.6875 -79.9961 360° North 513 590 35,000  Level Indianapolis Center
05:25AM 41.6875 -79.9961 360° North 513 590 35,000  Level Indianapolis Center
05:26AM 41.6875 -79.9961 360° North 513 590 35,000  Level Indianapolis Center
05:27AM 41.6875 -79.9961 360° North 513 590 35,000  Level Indianapolis Center
05:28AM 41.6875 -79.9961 360° North 513 590 35,000  Level Indianapolis Center
05:29AM 41.6875 -79.9961 360° North 513 590 35,000  Level Indianapolis Center
05:30AM 41.6875 -79.9961 360° North 513 590 35,000  Level Indianapolis Center
05:31AM 41.6875 -79.9961 360° North 513 590 35,000  Level Indianapolis Center
05:32AM 41.6875 -79.9961 360° North 513 590 35,000  Level Indianapolis Center
05:33AM 41.6875 -79.9961 360° North 513 590 35,000  Level Indianapolis Center
05:34AM 41.6875 -79.9961 360° North 513 590 35,000  Level Indianapolis Center
05:35AM 41.6875 -79.9961 360° North 513 590 35,000  Level Indianapolis Center
05:36AM 41.6875 -79.9961 360° North 513 590 35,000  Level Indianapolis Center
05:37AM 41.6875 -79.9961 360° North 513 590 35,000  Level Indianapolis Center
05:38AM 41.6875 -79.9961 360° North 513 590 35,000  Level Indianapolis Center
05:39AM 41.6875 -79.9961 360° North 513 590 35,000  Level Indianapolis Center
05:40AM 41.6875 -79.9961 360° North 513 590 35,000  Level Indianapolis Center
05:41AM 41.6875 -79.9961 360° North 513 590 35,000  Level Indianapolis Center
05:42AM 41.6875 -79.9961 360° North 513 590 35,000  Level Indianapolis Center
05:43AM 41.6875 -79.9961 360° North 513 590 35,000  Level Indianapolis Center
05:44AM 41.6875 -79.9961 360° North 513 590 35,000  Level Indianapolis Center
05:45AM 41.6875 -79.9961 360° North 513 590 35,000  Level Indianapolis Center
05:46AM 41.6875 -79.9961 360° North 513 590 35,000  Level Indianapolis Center
05:47AM 41.6875 -79.9961 360° North 513 590 35,000  Level Indianapolis Center
05:48AM 41.6875 -79.9961 41° Northeast 513 590 35,000 1,020 Level Indianapolis Center
05:49AM 59.0000 -40.0000 253° West 560 644 37,000  Climbing Transoceanic Report
05:49AM 41.6875 -79.9961 360° North 513 590 35,000 -1,800 Descending Indianapolis Center
05:50AM 41.6875 -79.9961 360° North 513 590 35,000  Level Indianapolis Center
05:51AM 41.6875 -79.9961 360° North 513 590 35,000  Level Indianapolis Center
05:52AM 41.6875 -79.9961 360° North 513 590 35,000  Level Indianapolis Center
05:53AM 41.6875 -79.9961 360° North 513 590 35,000  Level Indianapolis Center
05:54AM 41.6875 -79.9961 360° North 513 590 35,000  Level Indianapolis Center
05:55AM 41.6875 -79.9961 360° North 513 590 35,000  Level Indianapolis Center
05:56AM 41.6875 -79.9961 360° North 513 590 35,000  Level Indianapolis Center
05:57AM 41.6875 -79.9961 360° North 513 590 35,000  Level Indianapolis Center
05:58AM 41.6875 -79.9961 360° North 513 590 35,000  Level Indianapolis Center
05:59AM 41.6875 -79.9961 360° North 513 590 35,000  Level Indianapolis Center
06:00AM 41.6875 -79.9961 360° North 513 590 35,000  Level Indianapolis Center
06:01AM 41.6875 -79.9961 360° North 513 590 35,000  Level Indianapolis Center
06:02AM 41.6875 -79.9961 360° North 513 590 35,000  Level Indianapolis Center
06:03AM 41.6875 -79.9961 360° North 513 590 35,000  Level Indianapolis Center
06:04AM 41.6875 -79.9961 360° North 513 590 35,000  Level Indianapolis Center
06:05AM 41.6875 -79.9961 360° North 513 590 35,000  Level Indianapolis Center
06:06AM 41.6875 -79.9961 360° North 513 590 35,000  Level Indianapolis Center
06:07AM 41.6875 -79.9961 360° North 513 590 35,000  Level Indianapolis Center
06:08AM 41.6875 -79.9961 360° North 513 590 35,000  Level Indianapolis Center
06:09AM 41.6875 -79.9961 360° North 513 590 35,000  Level Indianapolis Center
06:10AM 41.6875 -79.9961 360° North 513 590 35,000  Level Indianapolis Center
06:11AM 41.6875 -79.9961 360° North 513 590 35,000  Level Indianapolis Center
06:12AM 41.6875 -79.9961 360° North 513 590 35,000  Level Indianapolis Center
06:13AM 41.6875 -79.9961 360° North 513 590 35,000  Level Indianapolis Center
06:14AM 41.6875 -79.9961 360° North 513 590 35,000  Level Indianapolis Center
06:15AM 41.6875 -79.9961 360° North 513 590 35,000  Level Indianapolis Center
06:16AM 41.6875 -79.9961 360° North 513 590 35,000  Level Indianapolis Center
06:17AM 41.6875 -79.9961 360° North 513 590 35,000  Level Indianapolis Center
06:18AM 41.6875 -79.9961 360° North 513 590 35,000  Level Indianapolis Center
06:19AM 41.6875 -79.9961 360° North 513 590 35,000  Level Indianapolis Center
06:20AM 41.6875 -79.9961 360° North 513 590 35,000  Level Indianapolis Center
06:21AM 41.6875 -79.9961 360° North 513 590 35,000  Level Indianapolis Center
06:22AM 41.6875 -79.9961 360° North 513 590 35,000  Level Indianapolis Center
06:23AM 41.6875 -79.9961 360° North 513 590 35,000  Level Indianapolis Center
06:24AM 41.6875 -79.9961 360° North 513 590 35,000  Level Indianapolis Center
06:25AM 41.6875 -79.9961 360° North 513 590 35,000  Level Indianapolis Center
06:26AM 41.6875 -79.9961 38° Northeast 513 590 35,000 1,020 Level Indianapolis Center
06:27AM 62.0000 -30.0000 259° West 548 631 37,000  Climbing Transoceanic Report
06:27AM 41.6875 -79.9961 360° North 513 590 35,000 -1,920 Descending Indianapolis Center
06:28AM 41.6875 -79.9961 360° North 513 590 35,000  Level Indianapolis Center
06:29AM 41.6875 -79.9961 360° North 513 590 35,000  Level Indianapolis Center
06:30AM 41.6875 -79.9961 360° North 513 590 35,000  Level Indianapolis Center
06:31AM 41.6875 -79.9961 360° North 513 590 35,000  Level Indianapolis Center
06:32AM 41.6875 -79.9961 360° North 513 590 35,000  Level Indianapolis Center
06:33AM 41.6875 -79.9961 360° North 513 590 35,000  Level Indianapolis Center
06:34AM 41.6875 -79.9961 360° North 513 590 35,000  Level Indianapolis Center
06:35AM 41.6875 -79.9961 360° North 513 590 35,000  Level Indianapolis Center
06:36AM 41.6875 -79.9961 360° North 513 590 35,000  Level Indianapolis Center
06:37AM 41.6875 -79.9961 360° North 513 590 35,000  Level Indianapolis Center
06:38AM 41.6875 -79.9961 360° North 513 590 35,000  Level Indianapolis Center
06:39AM 41.6875 -79.9961 360° North 513 590 35,000  Level Indianapolis Center
06:40AM 41.6875 -79.9961 360° North 513 590 35,000  Level Indianapolis Center
06:41AM 41.6875 -79.9961 360° North 513 590 35,000  Level Indianapolis Center
06:42AM 41.6875 -79.9961 360° North 513 590 35,000  Level Indianapolis Center
06:43AM 41.6875 -79.9961 360° North 513 590 35,000  Level Indianapolis Center
06:44AM 41.6875 -79.9961 360° North 513 590 35,000  Level Indianapolis Center
06:45AM 41.6875 -79.9961 360° North 513 590 35,000  Level Indianapolis Center
06:46AM 41.6875 -79.9961 360° North 513 590 35,000  Level Indianapolis Center
06:47AM 41.6875 -79.9961 360° North 513 590 35,000  Level Indianapolis Center
06:48AM 41.6875 -79.9961 360° North 513 590 35,000  Level Indianapolis Center
06:49AM 41.6875 -79.9961 360° North 513 590 35,000  Level Indianapolis Center
06:50AM 41.6875 -79.9961 360° North 513 590 35,000  Level Indianapolis Center
06:51AM 41.6875 -79.9961 360° North 513 590 35,000  Level Indianapolis Center
06:52AM 41.6875 -79.9961 360° North 513 590 35,000  Level Indianapolis Center
06:53AM 41.6875 -79.9961 360° North 513 590 35,000  Level Indianapolis Center
06:54AM 41.6875 -79.9961 360° North 513 590 35,000  Level Indianapolis Center
06:55AM 41.6875 -79.9961 360° North 513 590 35,000  Level Indianapolis Center
06:56AM 41.6875 -79.9961 360° North 513 590 35,000  Level Indianapolis Center
06:57AM 41.6875 -79.9961 360° North 513 590 35,000  Level Indianapolis Center
06:58AM 41.6875 -79.9961 360° North 513 590 35,000  Level Indianapolis Center
06:59AM 41.6875 -79.9961 360° North 513 590 35,000  Level Indianapolis Center
07:00AM 41.6875 -79.9961 360° North 513 590 35,000  Level Indianapolis Center
07:01AM 41.6875 -79.9961 360° North 513 590 35,000  Level Indianapolis Center
07:02AM 41.6875 -79.9961 360° North 513 590 35,000  Level Indianapolis Center
07:03AM 41.6875 -79.9961 360° North 513 590 35,000  Level Indianapolis Center
07:04AM 41.6875 -79.9961 360° North 513 590 35,000  Level Indianapolis Center
07:05AM 41.6875 -79.9961 360° North 513 590 35,000  Level Indianapolis Center
07:06AM 41.6875 -79.9961 360° North 513 590 35,000  Level Indianapolis Center
07:07AM 41.6875 -79.9961 360° North 513 590 35,000  Level Indianapolis Center
07:08AM 41.6875 -79.9961 360° North 513 590 35,000  Level Indianapolis Center
07:09AM 41.6875 -79.9961 360° North 513 590 35,000  Level Indianapolis Center
07:10AM 41.6875 -79.9961 360° North 513 590 35,000  Level Indianapolis Center
07:11AM 41.6875 -79.9961 360° North 513 590 35,000  Level Indianapolis Center
07:12AM 41.6875 -79.9961 360° North 513 590 35,000  Level Indianapolis Center
07:13AM 41.6875 -79.9961 360° North 513 590 35,000  Level Indianapolis Center
07:14AM 41.6875 -79.9961 360° North 513 590 35,000  Level Indianapolis Center
07:15AM 41.6875 -79.9961 360° North 513 590 35,000  Level Indianapolis Center
07:16AM 41.6875 -79.9961 360° North 513 590 35,000  Level Indianapolis Center
07:17AM 41.6875 -79.9961 360° North 513 590 35,000  Level Indianapolis Center
07:18AM 41.6875 -79.9961 360° North 513 590 35,000  Level Indianapolis Center
07:19AM 41.6875 -79.9961 360° North 513 590 35,000  Level Indianapolis Center
07:20AM 41.6875 -79.9961 360° North 513 590 35,000  Level Indianapolis Center
07:21AM 41.6875 -79.9961 360° North 513 590 35,000  Level Indianapolis Center
07:22AM 41.6875 -79.9961 360° North 513 590 35,000  Level Indianapolis Center
07:23AM 41.6875 -79.9961 360° North 513 590 35,000  Level Indianapolis Center
07:24AM 41.6875 -79.9961 360° North 513 590 35,000  Level Indianapolis Center
07:25AM 41.6875 -79.9961 360° North 513 590 35,000  Level Indianapolis Center
07:26AM 41.6875 -79.9961 360° North 513 590 35,000  Level Indianapolis Center
07:27AM 41.6875 -79.9961 360° North 513 590 35,000  Level Indianapolis Center
07:28AM 41.6875 -79.9961 360° North 513 590 35,000  Level Indianapolis Center
07:29AM 41.6875 -79.9961 360° North 513 590 35,000  Level Indianapolis Center
07:30AM 41.6875 -79.9961 360° North 513 590 35,000  Level Indianapolis Center
07:31AM 41.6875 -79.9961 360° North 513 590 35,000  Level Indianapolis Center
07:32AM 41.6875 -79.9961 360° North 513 590 35,000  Level Indianapolis Center
07:33AM 41.6875 -79.9961 360° North 513 590 35,000  Level Indianapolis Center
07:34AM 41.6875 -79.9961 360° North 513 590 35,000  Level Indianapolis Center
07:35AM 41.6875 -79.9961 360° North 513 590 35,000  Level Indianapolis Center
07:36AM 41.6875 -79.9961 360° North 513 590 35,000  Level Indianapolis Center
07:37AM 41.6875 -79.9961 360° North 513 590 35,000  Level Indianapolis Center
07:38AM 41.6875 -79.9961 360° North 513 590 35,000  Level Indianapolis Center
07:39AM 41.6875 -79.9961 360° North 513 590 35,000  Level Indianapolis Center
07:40AM 41.6875 -79.9961 360° North 513 590 35,000  Level Indianapolis Center
07:41AM 41.6875 -79.9961 360° North 513 590 35,000  Level Indianapolis Center
07:42AM 41.6875 -79.9961 360° North 513 590 35,000  Level Indianapolis Center
07:43AM 41.6875 -79.9961 360° North 513 590 35,000  Level Indianapolis Center
07:44AM 41.6875 -79.9961 360° North 513 590 35,000  Level Indianapolis Center
07:46AM 41.6875 -79.9961 360° North 513 590 35,000  Level Indianapolis Center
07:47AM 41.6875 -79.9961 360° North 513 590 35,000  Level Indianapolis Center
07:48AM 41.6875 -79.9961 360° North 513 590 35,000  Level Indianapolis Center
07:49AM 41.6875 -79.9961 360° North 513 590 35,000  Level Indianapolis Center
07:50AM 41.6875 -79.9961 360° North 513 590 35,000  Level Indianapolis Center
07:51AM 41.6875 -79.9961 360° North 513 590 35,000  Level Indianapolis Center
07:52AM 41.6875 -79.9961 360° North 513 590 35,000  Level Indianapolis Center
07:53AM 41.6875 -79.9961 360° North 513 590 35,000  Level Indianapolis Center
07:54AM 41.6875 -79.9961 360° North 513 590 35,000  Level Indianapolis Center
07:55AM 41.6875 -79.9961 360° North 513 590 35,000  Level Indianapolis Center
07:56AM 41.6875 -79.9961 360° North 513 590 35,000  Level Indianapolis Center
07:57AM 41.6875 -79.9961 360° North 513 590 35,000  Level Indianapolis Center
07:58AM 41.6875 -79.9961 360° North 513 590 35,000  Level Indianapolis Center
07:59AM 41.6875 -79.9961 360° North 513 590 35,000  Level Indianapolis Center
08:00AM 41.6875 -79.9961 360° North 513 590 35,000  Level Indianapolis Center
08:01AM 41.6875 -79.9961 360° North 513 590 35,000  Level Indianapolis Center
08:02AM 41.6875 -79.9961 360° North 513 590 35,000  Level Indianapolis Center
08:03AM 41.6875 -79.9961 360° North 513 590 35,000  Level Indianapolis Center
08:04AM 41.6875 -79.9961 360° North 513 590 35,000  Level Indianapolis Center
08:05AM 41.6875 -79.9961 360° North 513 590 35,000  Level Indianapolis Center
08:06AM 41.6875 -79.9961 360° North 513 590 35,000  Level Indianapolis Center
08:07AM 41.6875 -79.9961 360° North 513 590 35,000  Level Indianapolis Center
08:08AM 41.6875 -79.9961 360° North 513 590 35,000  Level Indianapolis Center
08:09AM 41.6875 -79.9961 360° North 513 590 35,000  Level Indianapolis Center
08:10AM 41.6875 -79.9961 360° North 513 590 35,000  Level Indianapolis Center
08:11AM 41.6875 -79.9961 360° North 513 590 35,000  Level Indianapolis Center
08:12AM 41.6875 -79.9961 360° North 513 590 35,000  Level Indianapolis Center
08:13AM 41.6875 -79.9961 360° North 513 590 35,000  Level Indianapolis Center
08:14AM 41.6875 -79.9961 360° North 513 590 35,000  Level Indianapolis Center
08:15AM 41.6875 -79.9961 360° North 513 590 35,000  Level Indianapolis Center
08:16AM 41.6875 -79.9961 360° North 513 590 35,000  Level Indianapolis Center
08:17AM 41.6875 -79.9961 360° North 513 590 35,000  Level Indianapolis Center
08:18AM 41.6875 -79.9961 360° North 513 590 35,000  Level Indianapolis Center
08:19AM 41.6875 -79.9961 360° North 513 590 35,000  Level Indianapolis Center
08:20AM 41.6875 -79.9961 360° North 513 590 35,000  Level Indianapolis Center
08:21AM 41.6875 -79.9961 360° North 513 590 35,000  Level Indianapolis Center
08:22AM 41.6875 -79.9961 360° North 513 590 35,000  Level Indianapolis Center
08:23AM 41.6875 -79.9961 360° North 513 590 35,000  Level Indianapolis Center
08:24AM 41.6875 -79.9961 360° North 513 590 35,000  Level Indianapolis Center
08:25AM 41.6875 -79.9961 360° North 513 590 35,000  Level Indianapolis Center
08:26AM 41.6875 -79.9961 360° North 513 590 35,000  Level Indianapolis Center
08:27AM 41.6875 -79.9961 360° North 513 590 35,000  Level Indianapolis Center
08:28AM 41.6875 -79.9961 360° North 513 590 35,000  Level Indianapolis Center
08:29AM 41.6875 -79.9961 360° North 513 590 35,000  Level Indianapolis Center
08:30AM 41.6875 -79.9961 360° North 513 590 35,000  Level Indianapolis Center
08:31AM 41.6875 -79.9961 360° North 513 590 35,000  Level Indianapolis Center
08:32AM 41.6875 -79.9961 360° North 513 590 35,000  Level Indianapolis Center
08:33AM 41.6875 -79.9961 360° North 513 590 35,000  Level Indianapolis Center
08:34AM 41.6875 -79.9961 360° North 513 590 35,000  Level Indianapolis Center
08:35AM 41.6875 -79.9961 360° North 513 590 35,000  Level Indianapolis Center
08:36AM 41.6875 -79.9961 360° North 513 590 35,000  Level Indianapolis Center
08:37AM 41.6875 -79.9961 360° North 513 590 35,000  Level Indianapolis Center
08:38AM 41.6875 -79.9961 360° North 513 590 35,000  Level Indianapolis Center
08:39AM 41.6875 -79.9961 360° North 513 590 35,000  Level Indianapolis Center
08:40AM 41.6875 -79.9961 360° North 513 590 35,000  Level Indianapolis Center
08:41AM 41.6875 -79.9961 360° North 513 590 35,000  Level Indianapolis Center
08:42AM 41.6875 -79.9961 360° North 513 590 35,000  Level Indianapolis Center
08:43AM 41.6875 -79.9961 360° North 513 590 35,000  Level Indianapolis Center
08:44AM 41.6875 -79.9961 360° North 513 590 35,000  Level Indianapolis Center
08:45AM 41.6875 -79.9961 360° North 513 590 35,000  Level Indianapolis Center
08:46AM 41.6875 -79.9961 360° North 513 590 35,000  Level Indianapolis Center
08:47AM 41.6875 -79.9961 360° North 513 590 35,000  Level Indianapolis Center
08:48AM 41.6875 -79.9961 360° North 513 590 35,000  Level Indianapolis Center
08:49AM 41.6875 -79.9961 360° North 513 590 35,000  Level Indianapolis Center
08:50AM 41.6875 -79.9961 360° North 513 590 35,000  Level Indianapolis Center
08:51AM 41.6875 -79.9961 360° North 513 590 35,000  Level Indianapolis Center
08:52AM 41.6875 -79.9961 360° North 513 590 35,000  Level Indianapolis Center
08:53AM 41.6875 -79.9961 360° North 513 590 35,000  Level Indianapolis Center
08:54AM 41.6875 -79.9961 360° North 513 590 35,000  Level Indianapolis Center
08:55AM 41.6875 -79.9961 360° North 513 590 35,000  Level Indianapolis Center
08:56AM 41.6875 -79.9961 360° North 513 590 35,000  Level Indianapolis Center
08:57AM 41.6875 -79.9961 360° North 513 590 35,000  Level Indianapolis Center
08:58AM 41.6875 -79.9961 360° North 513 590 35,000  Level Indianapolis Center
08:59AM 41.6875 -79.9961 360° North 513 590 35,000  Level Indianapolis Center
09:00AM 41.6875 -79.9961 360° North 513 590 35,000  Level Indianapolis Center
09:01AM 41.6875 -79.9961 360° North 513 590 35,000  Level Indianapolis Center
09:02AM 41.6875 -79.9961 360° North 513 590 35,000  Level Indianapolis Center
09:03AM 41.6875 -79.9961 360° North 513 590 35,000  Level Indianapolis Center
09:04AM 41.6875 -79.9961 360° North 513 590 35,000  Level Indianapolis Center
09:05AM 41.6875 -79.9961 360° North 513 590 35,000  Level Indianapolis Center
09:06AM 41.6875 -79.9961 360° North 513 590 35,000  Level Indianapolis Center
09:07AM 41.6875 -79.9961 360° North 513 590 35,000  Level Indianapolis Center
09:08AM 41.6875 -79.9961 360° North 513 590 35,000  Level Indianapolis Center
09:09AM 41.6875 -79.9961 360° North 513 590 35,000  Level Indianapolis Center
09:10AM 41.6875 -79.9961 360° North 513 590 35,000  Level Indianapolis Center
09:11AM 41.6875 -79.9961 360° North 513 590 35,000  Level Indianapolis Center
09:12AM 41.6875 -79.9961 360° North 513 590 35,000  Level Indianapolis Center
09:13AM 41.6875 -79.9961 360° North 513 590 35,000  Level Indianapolis Center
09:14AM 41.6875 -79.9961 360° North 513 590 35,000  Level Indianapolis Center
09:15AM 41.6875 -79.9961 360° North 513 590 35,000  Level Indianapolis Center
09:16AM 41.6875 -79.9961 360° North 513 590 35,000  Level Indianapolis Center
09:17AM 41.6875 -79.9961 360° North 513 590 35,000  Level Indianapolis Center
09:18AM 41.6875 -79.9961 360° North 513 590 35,000  Level Indianapolis Center
09:19AM 41.6875 -79.9961 360° North 513 590 35,000  Level Indianapolis Center
09:20AM 41.6875 -79.9961 360° North 513 590 35,000  Level Indianapolis Center
09:21AM 41.6875 -79.9961 360° North 513 590 35,000  Level Indianapolis Center
09:22AM 41.6875 -79.9961 360° North 513 590 35,000  Level Indianapolis Center
09:23AM 41.6875 -79.9961 360° North 513 590 35,000  Level Indianapolis Center
09:24AM 41.6875 -79.9961 360° North 513 590 35,000  Level Indianapolis Center
09:25AM 41.6875 -79.9961 360° North 513 590 35,000  Level Indianapolis Center
09:26AM 41.6875 -79.9961 360° North 513 590 35,000  Level Indianapolis Center
09:27AM 41.6875 -79.9961 360° North 513 590 35,000  Level Indianapolis Center
09:28AM 41.6875 -79.9961 360° North 513 590 35,000  Level Indianapolis Center
09:29AM 41.6875 -79.9961 360° North 513 590 35,000  Level Indianapolis Center
09:30AM 41.6875 -79.9961 360° North 513 590 35,000  Level Indianapolis Center
09:31AM 41.6875 -79.9961 360° North 513 590 35,000  Level Indianapolis Center
09:32AM 41.6875 -79.9961 360° North 513 590 35,000  Level Indianapolis Center
09:33AM 41.6875 -79.9961 360° North 513 590 35,000  Level Indianapolis Center
09:34AM 41.6875 -79.9961 360° North 513 590 35,000  Level Indianapolis Center
09:35AM 41.6875 -79.9961 360° North 513 590 35,000  Level Indianapolis Center
09:36AM 41.6875 -79.9961 360° North 513 590 35,000  Level Indianapolis Center
09:37AM 41.6875 -79.9961 360° North 513 590 35,000  Level Indianapolis Center
09:38AM 41.6875 -79.9961 360° North 513 590 35,000  Level Indianapolis Center
09:39AM 41.6875 -79.9961 360° North 513 590 35,000  Level Indianapolis Center
09:40AM 41.6875 -79.9961 360° North 513 590 35,000  Level Indianapolis Center
09:41AM 41.6875 -79.9961 360° North 513 590 35,000  Level Indianapolis Center
09:42AM 41.6875 -79.9961 360° North 513 590 35,000  Level Indianapolis Center
09:43AM 41.6875 -79.9961 360° North 513 590 35,000  Level Indianapolis Center
09:44AM 41.6875 -79.9961 360° North 513 590 35,000  Level Indianapolis Center
09:45AM 41.6875 -79.9961 360° North 513 590 35,000  Level Indianapolis Center
09:46AM 41.6875 -79.9961 360° North 513 590 35,000  Level Indianapolis Center
09:47AM 41.6875 -79.9961 360° North 513 590 35,000  Level Indianapolis Center
09:48AM 41.6875 -79.9961 360° North 513 590 35,000  Level Indianapolis Center
09:49AM 41.6875 -79.9961 360° North 513 590 35,000  Level Indianapolis Center
09:50AM 41.6875 -79.9961 360° North 513 590 35,000  Level Indianapolis Center
09:51AM 41.6875 -79.9961 360° North 513 590 35,000  Level Indianapolis Center
09:52AM 41.6875 -79.9961 360° North 513 590 35,000  Level Indianapolis Center
09:53AM 41.6875 -79.9961 360° North 513 590 35,000  Level Indianapolis Center
09:54AM 41.6875 -79.9961 360° North 513 590 35,000  Level Indianapolis Center
09:55AM 41.6875 -79.9961 360° North 513 590 35,000  Level Indianapolis Center
09:56AM 41.6875 -79.9961 360° North 513 590 35,000  Level Indianapolis Center
09:57AM 41.6875 -79.9961 360° North 513 590 35,000  Level Indianapolis Center
09:58AM 41.6875 -79.9961 360° North 513 590 35,000  Level Indianapolis Center
09:59AM 41.6875 -79.9961 360° North 513 590 35,000  Level Indianapolis Center
10:00AM 41.6875 -79.9961 360° North 513 590 35,000  Level Indianapolis Center
10:01AM 41.6875 -79.9961 360° North 513 590 35,000  Level Indianapolis Center
10:02AM 41.6875 -79.9961 360° North 513 590 35,000  Level Indianapolis Center
10:03AM 41.6875 -79.9961 360° North 513 590 35,000  Level Indianapolis Center
10:04AM 41.6875 -79.9961 360° North 513 590 35,000  Level Indianapolis Center
10:05AM 41.6875 -79.9961 360° North 513 590 35,000  Level Indianapolis Center
10:06AM 41.6875 -79.9961 360° North 513 590 35,000  Level Indianapolis Center
10:07AM 41.6875 -79.9961 360° North 513 590 35,000  Level Indianapolis Center
10:08AM 41.6875 -79.9961 360° North 513 590 35,000  Level Indianapolis Center
10:09AM 41.6875 -79.9961 360° North 513 590 35,000  Level Indianapolis Center
10:10AM 41.6875 -79.9961 360° North 513 590 35,000  Level Indianapolis Center
10:11AM 41.6875 -79.9961 360° North 513 590 35,000  Level Indianapolis Center
10:12AM 41.6875 -79.9961 360° North 513 590 35,000  Level Indianapolis Center
10:13AM 41.6875 -79.9961 360° North 513 590 35,000  Level Indianapolis Center
10:14AM 41.6875 -79.9961 360° North 513 590 35,000  Level Indianapolis Center
10:15AM 41.6875 -79.9961 360° North 513 590 35,000  Level Indianapolis Center
10:16AM 41.6875 -79.9961 360° North 513 590 35,000  Level Indianapolis Center
10:17AM 41.6875 -79.9961 360° North 513 590 35,000  Level Indianapolis Center
10:18AM 41.6875 -79.9961 360° North 513 590 35,000  Level Indianapolis Center
10:19AM 41.6875 -79.9961 360° North 513 590 35,000  Level Indianapolis Center
10:20AM 41.6875 -79.9961 360° North 513 590 35,000  Level Indianapolis Center
10:21AM 41.6875 -79.9961 360° North 513 590 35,000  Level Indianapolis Center
10:22AM 41.6875 -79.9961 360° North 513 590 35,000  Level Indianapolis Center
10:23AM 41.6875 -79.9961 360° North 513 590 35,000  Level Indianapolis Center
10:24AM 41.6875 -79.9961 360° North 513 590 35,000  Level Indianapolis Center
10:25AM 41.6875 -79.9961 360° North 513 590 35,000  Level Indianapolis Center
10:26AM 41.6875 -79.9961 360° North 513 590 35,000  Level Indianapolis Center
10:27AM 41.6875 -79.9961 360° North 513 590 35,000  Level Indianapolis Center
10:28AM 41.6875 -79.9961 360° North 513 590 35,000  Level Indianapolis Center
10:29AM 41.6875 -79.9961 360° North 513 590 35,000  Level Indianapolis Center
10:30AM 41.6875 -79.9961 360° North 513 590 35,000  Level Indianapolis Center
10:31AM 41.6875 -79.9961 360° North 513 590 35,000  Level Indianapolis Center
10:32AM 41.6875 -79.9961 360° North 513 590 35,000  Level Indianapolis Center
10:33AM 41.6875 -79.9961 360° North 513 590 35,000  Level Indianapolis Center
10:34AM 41.6875 -79.9961 360° North 513 590 35,000  Level Indianapolis Center
10:35AM 41.6875 -79.9961 360° North 513 590 35,000  Level Indianapolis Center
10:36AM 41.6875 -79.9961 360° North 513 590 35,000  Level Indianapolis Center
10:37AM 41.6875 -79.9961 360° North 513 590 35,000  Level Indianapolis Center
10:38AM 41.6875 -79.9961 360° North 513 590 35,000  Level Indianapolis Center
10:39AM 41.6875 -79.9961 360° North 513 590 35,000  Level Indianapolis Center
10:40AM 41.6875 -79.9961 360° North 513 590 35,000  Level Indianapolis Center
10:41AM 41.6875 -79.9961 360° North 513 590 35,000  Level Indianapolis Center
10:42AM 41.6875 -79.9961 360° North 513 590 35,000  Level Indianapolis Center
10:43AM 41.6875 -79.9961 360° North 513 590 35,000  Level Indianapolis Center
10:44AM 41.6875 -79.9961 360° North 513 590 35,000  Level Indianapolis Center
10:45AM 41.6875 -79.9961 360° North 513 590 35,000  Level Indianapolis Center
10:46AM 41.6875 -79.9961 360° North 513 590 35,000  Level Indianapolis Center
10:47AM 41.6875 -79.9961 360° North 513 590 35,000  Level Indianapolis Center
10:48AM 41.6875 -79.9961 360° North 513 590 35,000  Level Indianapolis Center
10:49AM 41.6875 -79.9961 360° North 513 590 35,000  Level Indianapolis Center
10:50AM 41.6875 -79.9961 360° North 513 590 35,000  Level Indianapolis Center
10:51AM 41.6875 -79.9961 360° North 513 590 35,000  Level Indianapolis Center
10:52AM 41.6875 -79.9961 360° North 513 590 35,000  Level Indianapolis Center
10:53AM 41.6875 -79.9961 360° North 513 590 35,000  Level Indianapolis Center
10:54AM 41.6875 -79.9961 360° North 513 590 35,000  Level Indianapolis Center
10:55AM 41.6875 -79.9961 360° North 513 590 35,000  Level Indianapolis Center
10:56AM 41.6875 -79.9961 360° North 513 590 35,000  Level Indianapolis Center
10:57AM 41.6875 -79.9961 360° North 513 590 35,000  Level Indianapolis Center
10:58AM 41.6875 -79.9961 360° North 513 590 35,000  Level Indianapolis Center
10:59AM 41.6875 -79.9961 360° North 513 590 35,000  Level Indianapolis Center
11:00AM 41.6875 -79.9961 360° North 513 590 35,000  Level Indianapolis Center
11:01AM 41.6875 -79.9961 360° North 513 590 35,000  Level Indianapolis Center
11:02AM 41.6875 -79.9961 360° North 513 590 35,000  Level Indianapolis Center
11:03AM 41.6875 -79.9961 360° North 513 590 35,000  Level Indianapolis Center
11:04AM 41.6875 -79.9961 360° North 513 590 35,000  Level Indianapolis Center
11:05AM 41.6875 -79.9961 360° North 513 590 35,000  Level Indianapolis Center
11:06AM 41.6875 -79.9961 360° North 513 590 35,000  Level Indianapolis Center
11:07AM 41.6875 -79.9961 360° North 513 590 35,000  Level Indianapolis Center
11:08AM 41.6875 -79.9961 360° North 513 590 35,000  Level Indianapolis Center
11:09AM 41.6875 -79.9961 360° North 513 590 35,000  Level Indianapolis Center
11:10AM 41.6875 -79.9961 360° North 513 590 35,000  Level Indianapolis Center
11:11AM 41.6875 -79.9961 360° North 513 590 35,000  Level Indianapolis Center
11:12AM 41.6875 -79.9961 360° North 513 590 35,000  Level Indianapolis Center
11:13AM 41.6875 -79.9961 360° North 513 590 35,000  Level Indianapolis Center
11:14AM 41.6875 -79.9961 360° North 513 590 35,000  Level Indianapolis Center
11:15AM 41.6875 -79.9961 360° North 513 590 35,000  Level Indianapolis Center
11:16AM 41.6875 -79.9961 360° North 513 590 35,000  Level Indianapolis Center
11:17AM 41.6875 -79.9961 360° North 513 590 35,000  Level Indianapolis Center
11:18AM 41.6875 -79.9961 360° North 513 590 35,000  Level Indianapolis Center
11:19AM 41.6875 -79.9961 360° North 513 590 35,000  Level Indianapolis Center
11:20AM 41.6875 -79.9961 360° North 513 590 35,000  Level Indianapolis Center
11:21AM 41.6875 -79.9961 360° North 513 590 35,000  Level Indianapolis Center
11:22AM 41.6875 -79.9961 360° North 513 590 35,000  Level Indianapolis Center
11:23AM 41.6875 -79.9961 360° North 513 590 35,000  Level Indianapolis Center
11:24AM 41.6875 -79.9961 360° North 513 590 35,000  Level Indianapolis Center
11:25AM 41.6875 -79.9961 360° North 513 590 35,000  Level Indianapolis Center
11:26AM 41.6875 -79.9961 360° North 513 590 35,000  Level Indianapolis Center
11:27AM 41.6875 -79.9961 360° North 513 590 35,000  Level Indianapolis Center
11:28AM 41.6875 -79.9961 360° North 513 590 35,000  Level Indianapolis Center
11:29AM 41.6875 -79.9961 360° North 513 590 35,000  Level Indianapolis Center
11:30AM 41.6875 -79.9961 360° North 513 590 35,000  Level Indianapolis Center
11:31AM 41.6875 -79.9961 360° North 513 590 35,000  Level Indianapolis Center
11:32AM 41.6875 -79.9961 360° North 513 590 35,000  Level Indianapolis Center
11:33AM 41.6875 -79.9961 360° North 513 590 35,000  Level Indianapolis Center
11:34AM 41.6875 -79.9961 360° North 513 590 35,000  Level Indianapolis Center